createdAt,value
2023-01-11T10:29:21.368Z,9.30
2023-01-11T10:34:01.600Z,7.53
2023-01-11T10:38:41.227Z,7.37
2023-01-11T10:43:39.041Z,8.27
2023-01-11T10:48:56.516Z,7.65
2023-01-11T10:53:22.657Z,7.10
2023-01-11T10:58:11.942Z,8.43
2023-01-11T11:02:44.569Z,8.15
2023-01-11T11:07:06.131Z,7.23
2023-01-11T11:16:23.886Z,5.95
2023-01-11T11:20:44.349Z,8.20
2023-01-11T11:25:11.483Z,6.95
2023-01-11T11:29:35.199Z,6.35
2023-01-11T11:33:51.940Z,5.20
2023-01-11T11:38:03.442Z,6.10
2023-01-11T11:46:33.470Z,6.35
2023-01-11T11:55:12.011Z,7.95
2023-01-11T11:59:40.493Z,7.28
2023-01-11T12:08:33.485Z,7.32
2023-01-11T12:13:22.182Z,6.75
2023-01-11T12:26:33.900Z,6.65
2023-01-11T12:31:07.950Z,4.85
2023-01-11T12:35:43.558Z,7.23
2023-01-11T12:40:04.021Z,5.32
2023-01-11T12:44:39.155Z,4.70
2023-01-11T12:49:02.706Z,5.93
2023-01-11T12:53:32.144Z,4.93
2023-01-11T12:58:22.355Z,5.37
2023-01-11T13:02:37.219Z,4.82
2023-01-11T13:07:09.830Z,5.00
2023-01-11T13:11:48.425Z,4.72
2023-01-11T13:16:05.644Z,4.75
2023-01-11T13:20:59.309Z,4.43
2023-01-11T13:25:11.432Z,3.85
2023-01-11T13:29:26.602Z,4.68
2023-01-11T13:33:40.814Z,5.37
2023-01-11T13:42:54.210Z,4.15
2023-01-11T13:47:26.243Z,4.85
2023-01-11T13:51:57.637Z,5.27
2023-01-11T13:56:26.583Z,10.30
2023-01-11T14:01:04.067Z,9.52
2023-01-11T14:05:44.191Z,9.50
2023-01-11T14:10:27.932Z,4.85
2023-01-11T14:14:46.101Z,8.70
2023-01-11T14:18:59.090Z,7.37
2023-01-11T14:23:18.690Z,8.63
2023-01-11T14:27:59.751Z,12.05
2023-01-11T14:32:31.203Z,10.52
2023-01-11T14:36:49.534Z,9.70
2023-01-11T14:46:06.571Z,20.15
2023-01-11T14:55:45.614Z,33.42
2023-01-11T14:59:48.469Z,20.65
2023-01-11T15:03:56.136Z,23.07
2023-01-11T15:08:14.165Z,18.37
2023-01-11T15:12:19.843Z,28.35
2023-01-11T15:16:52.821Z,19.55
2023-01-11T15:20:58.596Z,16.73
2023-01-11T15:25:04.786Z,21.40
2023-01-11T15:29:21.662Z,14.35
2023-01-11T15:33:25.652Z,12.53
2023-01-11T15:38:13.585Z,14.45
2023-01-11T15:42:16.205Z,12.13
2023-01-11T15:46:55.641Z,7.90
2023-01-11T15:51:17.131Z,6.93
